Terminal Aerodrome Forecast
Issued by NWS

Home | Current Version | Previous Version | Graphics & Text | Print | Product List | Glossary On
Versions: 1 2 3 4 5 6 7 8 9 10 11 12 13 14 15 16 17 18 19 20 21 22 23 24
182
FTUS43 KPAH 282328 AAA
TAFCGI
TAF AMD
KCGI 282328Z 2823/2924 26006KT P6SM SCT030
     FM290300 00000KT 5SM BR SCT050 SCT100
     FM290600 00000KT 3SM BR SCT015
      TEMPO 2908/2912 1SM BR BCFG OVC005
     FM291300 32003KT P6SM SCT030=

USA.gov is the U.S. government's official web portal to all federal, state and local government web resources and services.